createdAt,value
2019-05-23T00:02:36.242Z,8.50
2019-05-23T00:05:12.890Z,7.75
2019-05-23T00:07:42.021Z,8.45
2019-05-23T00:10:12.163Z,8.88
2019-05-23T00:12:54.299Z,8.93
2019-05-23T00:15:27.059Z,8.58
2019-05-23T00:17:56.639Z,9.05
2019-05-23T00:20:24.496Z,8.13
2019-05-23T00:22:52.236Z,8.13
2019-05-23T00:25:19.504Z,7.17
2019-05-23T00:27:47.136Z,7.53
2019-05-23T00:30:20.501Z,6.97
2019-05-23T00:32:52.572Z,7.22
2019-05-23T00:35:20.272Z,6.62
2019-05-23T00:37:48.556Z,6.78
2019-05-23T00:40:16.499Z,6.53
2019-05-23T00:42:44.966Z,6.15
2019-05-23T00:45:12.602Z,7.08
2019-05-23T00:47:40.241Z,6.72
2019-05-23T00:50:08.003Z,6.67
2019-05-23T00:52:35.564Z,7.62
2019-05-23T00:55:03.412Z,8.00
2019-05-23T00:57:31.220Z,8.50
2019-05-23T00:59:59.363Z,8.13
2019-05-23T01:02:27.055Z,8.40
2019-05-23T01:04:55.188Z,5.75
2019-05-23T01:07:22.446Z,6.15
2019-05-23T01:09:49.971Z,6.08
2019-05-23T01:12:17.427Z,6.62
2019-05-23T01:14:46.443Z,6.65
2019-05-23T01:17:14.601Z,7.05
2019-05-23T01:19:42.644Z,7.22
2019-05-23T01:22:12.111Z,7.10
2019-05-23T01:24:41.385Z,6.95
2019-05-23T01:27:09.634Z,6.75
2019-05-23T01:29:40.928Z,7.22
2019-05-23T01:32:15.320Z,6.95
2019-05-23T01:34:44.172Z,6.92
2019-05-23T01:37:13.148Z,7.12
2019-05-23T01:39:40.516Z,7.83
2019-05-23T01:42:08.796Z,7.72
2019-05-23T01:44:36.683Z,7.97
2019-05-23T01:47:04.355Z,7.65
2019-05-23T01:49:32.284Z,8.70
2019-05-23T01:52:00.603Z,9.08
2019-05-23T01:54:28.070Z,8.63
2019-05-23T01:56:55.413Z,7.92
2019-05-23T01:59:23.343Z,8.08
2019-05-23T02:01:52.659Z,7.70
2019-05-23T02:04:20.063Z,7.40
2019-05-23T02:06:47.620Z,8.03
2019-05-23T02:09:15.274Z,7.28
2019-05-23T02:11:42.400Z,6.28
2019-05-23T02:14:10.655Z,6.97
2019-05-23T02:16:38.317Z,6.62
2019-05-23T02:19:06.507Z,6.20
2019-05-23T02:21:33.815Z,6.03
2019-05-23T02:24:01.543Z,6.20
2019-05-23T02:26:30.720Z,6.78
2019-05-23T02:28:59.984Z,7.00
2019-05-23T02:31:27.642Z,7.55
2019-05-23T02:33:55.190Z,6.67
2019-05-23T02:36:22.599Z,7.70
2019-05-23T02:39:15.345Z,8.23
2019-05-23T02:41:49.610Z,7.85
2019-05-23T02:44:21.419Z,8.25
2019-05-23T02:47:09.360Z,7.62
2019-05-23T02:49:37.003Z,8.03
2019-05-23T02:52:26.904Z,7.17
2019-05-23T02:54:55.353Z,6.45
2019-05-23T02:57:24.668Z,7.58
2019-05-23T02:59:56.796Z,6.28
2019-05-23T03:03:01.514Z,6.05
2019-05-23T03:05:30.548Z,5.85
2019-05-23T03:08:00.561Z,5.90
2019-05-23T03:10:47.985Z,5.77
2019-05-23T03:13:16.265Z,5.70
2019-05-23T03:15:44.799Z,5.30
2019-05-23T03:18:12.238Z,6.10
2019-05-23T03:20:39.574Z,6.05
2019-05-23T03:23:12.161Z,8.40
2019-05-23T03:26:18.637Z,8.18
2019-05-23T03:28:47.893Z,8.95
2019-05-23T03:31:29.530Z,7.20
2019-05-23T03:33:51.237Z,5.50
2019-05-23T03:36:18.869Z,5.83
2019-05-23T03:38:46.657Z,6.97
2019-05-23T03:41:14.096Z,6.78
2019-05-23T03:43:41.859Z,7.12
2019-05-23T03:46:11.792Z,7.10
2019-05-23T03:48:40.759Z,6.22
2019-05-23T03:51:09.785Z,6.55
2019-05-23T03:53:37.863Z,6.37
2019-05-23T03:56:06.983Z,6.78
2019-05-23T03:58:34.425Z,6.08
2019-05-23T04:01:04.579Z,6.05
2019-05-23T04:03:32.329Z,7.00
2019-05-23T04:06:00.071Z,7.17
2019-05-23T04:08:28.356Z,7.15
2019-05-23T04:10:57.557Z,7.72
2019-05-23T04:13:25.614Z,7.83
2019-05-23T04:15:52.892Z,9.05
2019-05-23T04:18:20.248Z,10.28
2019-05-23T04:20:47.634Z,10.65
2019-05-23T04:23:15.182Z,10.13
2019-05-23T04:25:42.588Z,10.23
2019-05-23T04:28:10.070Z,8.95
2019-05-23T04:30:37.442Z,10.05
2019-05-23T04:33:04.934Z,8.60
2019-05-23T04:35:32.260Z,8.90
2019-05-23T04:37:59.957Z,8.98
2019-05-23T04:40:27.411Z,8.88
2019-05-23T04:42:54.627Z,8.73
2019-05-23T04:45:22.508Z,7.75
2019-05-23T04:47:49.773Z,7.50
2019-05-23T04:50:17.537Z,7.75
2019-05-23T04:52:45.222Z,7.87
2019-05-23T04:55:14.618Z,7.65
2019-05-23T04:57:42.668Z,7.47
2019-05-23T05:00:11.393Z,7.97
2019-05-23T05:02:39.579Z,7.78
2019-05-23T05:05:07.896Z,7.50
2019-05-23T05:07:35.788Z,7.55
2019-05-23T05:10:04.083Z,8.10
2019-05-23T05:12:31.578Z,9.20
2019-05-23T05:14:59.326Z,8.95
2019-05-23T05:17:26.597Z,9.48
2019-05-23T05:19:53.832Z,9.00
2019-05-23T05:22:21.800Z,9.73
2019-05-23T05:24:49.303Z,9.50
2019-05-23T05:27:18.809Z,9.20
2019-05-23T05:29:46.041Z,9.68
2019-05-23T05:32:14.673Z,8.75
2019-05-23T05:34:42.427Z,9.05
2019-05-23T05:37:09.692Z,8.98
2019-05-23T05:39:37.061Z,9.40
2019-05-23T05:42:06.985Z,8.40
2019-05-23T05:44:34.247Z,9.83
2019-05-23T05:47:01.616Z,10.48
2019-05-23T05:49:28.877Z,10.23
2019-05-23T05:51:56.118Z,10.98
2019-05-23T05:54:23.436Z,10.85
2019-05-23T05:56:50.702Z,10.78
2019-05-23T05:59:18.111Z,10.35
2019-05-23T06:01:45.456Z,10.05
2019-05-23T06:04:13.501Z,10.30
2019-05-23T06:06:58.712Z,9.85
2019-05-23T06:09:29.124Z,10.05
2019-05-23T06:11:56.751Z,10.70
2019-05-23T06:14:24.224Z,9.93
2019-05-23T06:16:53.496Z,11.22
2019-05-23T06:19:21.555Z,10.72
2019-05-23T06:21:49.208Z,12.00
2019-05-23T06:24:16.448Z,10.98
2019-05-23T06:26:44.228Z,12.33
2019-05-23T06:29:11.963Z,11.85
2019-05-23T06:31:40.727Z,11.75
2019-05-23T06:34:08.292Z,11.73
2019-05-23T06:36:36.220Z,12.65
2019-05-23T06:39:05.886Z,12.98
2019-05-23T06:41:34.165Z,13.38
2019-05-23T06:44:01.453Z,12.68
2019-05-23T06:46:28.751Z,14.20
2019-05-23T06:48:56.052Z,13.40
2019-05-23T06:51:23.432Z,14.18
2019-05-23T06:53:51.485Z,14.53
2019-05-23T06:56:18.729Z,14.75
2019-05-23T06:58:46.128Z,13.65
2019-05-23T07:01:13.761Z,14.35
2019-05-23T07:03:43.632Z,13.48
2019-05-23T07:06:14.684Z,14.15
2019-05-23T07:08:42.547Z,14.25
2019-05-23T07:11:09.874Z,14.93
2019-05-23T07:13:37.856Z,15.10
2019-05-23T07:16:05.291Z,14.90
2019-05-23T07:18:32.556Z,14.55
2019-05-23T07:20:59.857Z,14.25
2019-05-23T07:23:27.139Z,13.35
2019-05-23T07:25:54.380Z,13.13
2019-05-23T07:28:21.616Z,12.07
2019-05-23T07:30:49.284Z,11.33
2019-05-23T07:33:16.612Z,10.72
2019-05-23T07:35:43.888Z,11.30
2019-05-23T07:38:11.458Z,10.08
2019-05-23T07:40:38.927Z,11.10
2019-05-23T07:43:06.758Z,11.97
2019-05-23T07:45:40.288Z,12.13
2019-05-23T07:48:07.494Z,10.75
2019-05-23T07:50:34.739Z,9.53
2019-05-23T07:53:03.679Z,9.53
2019-05-23T07:55:36.109Z,9.55
2019-05-23T07:58:03.654Z,9.60
2019-05-23T08:00:34.028Z,9.03
2019-05-23T08:03:04.085Z,8.43
2019-05-23T08:05:31.501Z,8.48
2019-05-23T08:07:58.852Z,7.87
2019-05-23T08:10:33.712Z,8.10
2019-05-23T08:12:55.740Z,7.45
2019-05-23T08:15:23.472Z,8.68
2019-05-23T08:17:50.833Z,9.00
2019-05-23T08:20:18.233Z,8.70
2019-05-23T08:22:45.928Z,9.03
2019-05-23T08:25:13.165Z,8.98
2019-05-23T08:27:40.893Z,9.45
2019-05-23T08:30:08.532Z,9.08
2019-05-23T08:32:36.433Z,10.82
2019-05-23T08:35:04.609Z,10.88
2019-05-23T08:37:31.973Z,10.60
2019-05-23T08:39:59.753Z,11.83
2019-05-23T08:42:27.276Z,10.60
2019-05-23T08:44:54.899Z,11.88
2019-05-23T08:47:22.756Z,9.25
2019-05-23T08:49:50.995Z,8.80
2019-05-23T08:52:18.243Z,8.63
2019-05-23T08:54:47.711Z,7.60
2019-05-23T08:57:14.936Z,6.58
2019-05-23T08:59:42.717Z,7.00
2019-05-23T09:02:11.609Z,6.90
2019-05-23T09:04:39.010Z,6.30
2019-05-23T09:07:06.557Z,6.53
2019-05-23T09:09:33.913Z,5.92
2019-05-23T09:12:01.151Z,5.62
2019-05-23T09:14:28.922Z,6.00
2019-05-23T09:16:56.162Z,6.60
2019-05-23T09:19:24.440Z,6.25
2019-05-23T09:21:57.560Z,5.80
2019-05-23T09:24:20.929Z,6.17
2019-05-23T09:26:48.483Z,5.53
2019-05-23T09:29:16.003Z,5.33
2019-05-23T09:31:43.337Z,6.17
2019-05-23T09:34:10.739Z,5.40
2019-05-23T09:36:38.291Z,5.60
2019-05-23T09:39:07.770Z,5.70
2019-05-23T09:41:35.322Z,5.03
2019-05-23T09:44:02.625Z,5.50
2019-05-23T09:46:30.565Z,5.50
2019-05-23T09:48:57.862Z,5.40
2019-05-23T09:51:25.229Z,5.47
2019-05-23T09:53:52.588Z,5.25
2019-05-23T09:56:19.850Z,5.90
2019-05-23T09:58:47.086Z,6.12
2019-05-23T10:01:15.561Z,5.40
2019-05-23T10:03:42.902Z,5.28
2019-05-23T10:06:10.368Z,5.50
2019-05-23T10:08:37.641Z,5.83
2019-05-23T10:11:04.969Z,5.45
2019-05-23T10:13:39.192Z,6.12
2019-05-23T10:16:09.502Z,6.17
2019-05-23T10:18:37.424Z,6.15
2019-05-23T10:21:05.028Z,6.85
2019-05-23T10:23:32.823Z,6.10
2019-05-23T10:26:00.127Z,5.80
2019-05-23T10:28:27.445Z,5.58
2019-05-23T10:30:54.707Z,5.58
2019-05-23T10:33:21.965Z,5.78
2019-05-23T10:35:59.635Z,5.67
2019-05-23T10:38:18.412Z,5.28
2019-05-23T10:40:45.863Z,5.62
2019-05-23T10:43:13.103Z,5.05
2019-05-23T10:45:40.449Z,5.35
2019-05-23T10:48:08.293Z,5.58
2019-05-23T10:50:44.106Z,5.80
2019-05-23T10:53:04.845Z,5.08
2019-05-23T10:55:32.206Z,5.55
2019-05-23T10:57:59.430Z,6.12
2019-05-23T11:00:28.120Z,5.08
2019-05-23T11:02:55.431Z,6.55
2019-05-23T11:05:22.935Z,5.70
2019-05-23T11:07:50.914Z,6.35
2019-05-23T11:10:19.768Z,6.55
2019-05-23T11:12:47.053Z,6.62
2019-05-23T11:15:15.210Z,5.95
2019-05-23T11:17:43.280Z,5.37
2019-05-23T11:20:12.103Z,5.90
2019-05-23T11:22:39.635Z,5.75
2019-05-23T11:25:09.221Z,5.33
2019-05-23T11:27:36.879Z,6.35
2019-05-23T11:30:04.361Z,6.42
2019-05-23T11:32:31.678Z,5.70
2019-05-23T11:34:59.216Z,5.62
2019-05-23T11:37:26.555Z,6.67
2019-05-23T11:39:53.912Z,5.28
2019-05-23T11:42:21.572Z,5.92
2019-05-23T11:44:48.814Z,5.50
2019-05-23T11:47:16.221Z,5.40
2019-05-23T11:49:44.643Z,5.33
2019-05-23T11:52:12.593Z,5.05
2019-05-23T11:54:39.993Z,4.85
2019-05-23T11:57:08.468Z,4.97
2019-05-23T11:59:35.757Z,4.85
2019-05-23T12:02:35.240Z,4.80
2019-05-23T12:05:05.881Z,5.65
2019-05-23T12:10:00.829Z,4.97
2019-05-23T12:12:28.319Z,4.60
2019-05-23T12:14:55.941Z,4.20
2019-05-23T12:17:25.404Z,4.62
2019-05-23T12:19:52.953Z,3.50
2019-05-23T12:22:20.913Z,4.05
2019-05-23T12:24:48.192Z,5.42
2019-05-23T12:27:15.469Z,4.70
2019-05-23T12:29:43.075Z,4.80
2019-05-23T12:32:12.222Z,5.55
2019-05-23T12:34:39.497Z,4.85
2019-05-23T12:37:22.058Z,4.97
2019-05-23T12:39:36.040Z,5.97
2019-05-23T12:42:03.425Z,5.10
2019-05-23T12:44:30.698Z,5.47
2019-05-23T12:46:58.653Z,5.78
2019-05-23T12:49:33.532Z,5.15
2019-05-23T12:52:01.015Z,4.62
2019-05-23T12:54:28.635Z,5.30
2019-05-23T12:56:56.236Z,6.10
2019-05-23T12:59:24.202Z,5.92
2019-05-23T13:01:53.594Z,5.33
2019-05-23T13:04:21.138Z,5.40
2019-05-23T13:06:50.205Z,4.95
2019-05-23T13:09:17.563Z,5.47
2019-05-23T13:11:44.800Z,6.05
2019-05-23T13:14:12.357Z,5.65
2019-05-23T13:16:39.690Z,5.47
2019-05-23T13:19:06.945Z,5.42
2019-05-23T13:21:34.364Z,5.25
2019-05-23T13:24:01.652Z,6.00
2019-05-23T13:26:29.044Z,5.35
2019-05-23T13:28:56.480Z,5.75
2019-05-23T13:31:24.172Z,4.78
2019-05-23T13:33:51.498Z,4.60
2019-05-23T13:36:18.755Z,5.15
2019-05-23T13:38:46.531Z,5.20
2019-05-23T13:41:13.841Z,4.45
2019-05-23T13:43:41.525Z,5.20
2019-05-23T13:46:08.796Z,5.20
2019-05-23T13:48:36.154Z,5.72
2019-05-23T13:51:03.422Z,5.70
2019-05-23T13:53:31.464Z,5.50
2019-05-23T13:55:59.048Z,5.03
2019-05-23T13:58:27.468Z,4.20
2019-05-23T14:00:54.880Z,4.12
2019-05-23T14:03:22.394Z,4.37
2019-05-23T14:05:49.631Z,4.62
2019-05-23T14:08:19.279Z,4.22
2019-05-23T14:10:46.707Z,4.12
2019-05-23T14:13:14.184Z,4.78
2019-05-23T14:15:43.699Z,4.10
2019-05-23T14:18:15.111Z,4.28
2019-05-23T14:20:42.564Z,4.33
2019-05-23T14:23:17.751Z,4.30
2019-05-23T14:25:45.134Z,4.17
2019-05-23T14:28:12.423Z,3.87
2019-05-23T14:30:43.981Z,3.92
2019-05-23T14:33:22.816Z,3.70
2019-05-23T14:35:51.053Z,4.10
2019-05-23T14:38:30.297Z,3.58
2019-05-23T14:40:47.654Z,3.95
2019-05-23T14:43:19.631Z,4.78
2019-05-23T14:46:10.598Z,4.37
2019-05-23T14:48:58.828Z,4.58
2019-05-23T14:51:44.058Z,4.47
2019-05-23T14:54:36.222Z,3.65
2019-05-23T14:57:04.710Z,4.00
2019-05-23T14:59:31.949Z,4.08
2019-05-23T15:01:59.624Z,3.62
2019-05-23T15:04:26.887Z,3.30
2019-05-23T15:06:54.160Z,3.20
2019-05-23T15:09:22.061Z,3.50
2019-05-23T15:11:49.685Z,3.30
2019-05-23T15:14:17.004Z,3.67
2019-05-23T15:16:44.265Z,2.77
2019-05-23T15:19:11.667Z,3.20
2019-05-23T15:21:39.111Z,3.00
2019-05-23T15:24:06.453Z,2.75
2019-05-23T15:26:33.987Z,3.37
2019-05-23T15:29:01.454Z,2.67
2019-05-23T15:31:28.801Z,2.60
2019-05-23T15:33:56.062Z,2.92
2019-05-23T15:36:23.435Z,2.85
2019-05-23T15:39:07.525Z,3.30
2019-05-23T15:41:20.152Z,2.87
2019-05-23T15:43:47.598Z,2.55
2019-05-23T15:46:14.852Z,2.80
2019-05-23T15:48:42.131Z,2.33
2019-05-23T15:51:11.236Z,2.70
2019-05-23T15:53:49.354Z,2.67
2019-05-23T15:56:28.124Z,2.65
2019-05-23T15:59:13.496Z,3.00
2019-05-23T16:01:56.869Z,2.83
2019-05-23T16:04:24.202Z,2.70
2019-05-23T16:06:51.927Z,2.58
2019-05-23T16:09:29.242Z,2.95
2019-05-23T16:11:49.909Z,2.87
2019-05-23T16:14:17.749Z,2.67
2019-05-23T16:16:45.733Z,3.20
2019-05-23T16:19:13.222Z,3.27
2019-05-23T16:21:40.468Z,3.15
2019-05-23T16:24:08.349Z,2.90
2019-05-23T16:26:35.633Z,3.10
2019-05-23T16:29:03.261Z,3.40
2019-05-23T16:31:30.476Z,6.87
2019-05-23T16:33:57.782Z,3.98
2019-05-23T16:36:25.000Z,3.70
2019-05-23T16:38:52.304Z,3.90
2019-05-23T16:41:19.579Z,3.30
2019-05-23T16:43:46.872Z,3.10
2019-05-23T16:46:14.269Z,3.05
2019-05-23T16:48:41.492Z,2.87
2019-05-23T16:51:09.167Z,3.10
2019-05-23T16:53:36.558Z,2.90
2019-05-23T16:56:09.362Z,2.83
2019-05-23T16:59:05.011Z,3.05
2019-05-23T17:01:57.095Z,3.22
2019-05-23T17:04:31.218Z,3.12
2019-05-23T17:07:11.092Z,3.33
2019-05-23T17:09:44.760Z,3.20
2019-05-23T17:12:24.496Z,3.35
2019-05-23T17:15:09.302Z,3.50
2019-05-23T17:18:01.256Z,3.37
2019-05-23T17:20:35.354Z,3.37
2019-05-23T17:23:10.747Z,2.87
2019-05-23T17:25:57.519Z,3.30
2019-05-23T17:28:28.963Z,3.60
2019-05-23T17:31:02.403Z,3.40
2019-05-23T17:33:30.012Z,3.20
2019-05-23T17:35:57.304Z,3.92
2019-05-23T17:38:24.548Z,3.47
2019-05-23T17:40:51.998Z,3.90
2019-05-23T17:43:19.388Z,3.90
2019-05-23T17:45:47.122Z,3.70
2019-05-23T17:48:14.632Z,4.05
2019-05-23T17:50:41.908Z,3.75
2019-05-23T17:53:09.364Z,3.55
2019-05-23T17:55:37.145Z,3.47
2019-05-23T17:58:04.396Z,4.22
2019-05-23T18:00:38.642Z,3.98
2019-05-23T18:03:06.048Z,3.90
2019-05-23T18:05:33.638Z,3.70
2019-05-23T18:08:01.234Z,3.35
2019-05-23T18:10:44.154Z,4.22
2019-05-23T18:12:58.138Z,3.85
2019-05-23T18:15:26.117Z,4.40
2019-05-23T18:17:53.463Z,4.33
2019-05-23T18:20:21.252Z,3.65
2019-05-23T18:22:48.980Z,3.98
2019-05-23T18:25:17.141Z,3.92
2019-05-23T18:27:45.012Z,4.15
2019-05-23T18:30:23.266Z,4.00
2019-05-23T18:32:52.645Z,4.25
2019-05-23T18:35:19.984Z,3.98
2019-05-23T18:37:48.019Z,4.25
2019-05-23T18:40:15.807Z,4.37
2019-05-23T18:42:44.892Z,4.58
2019-05-23T18:45:13.544Z,3.95
2019-05-23T18:47:42.099Z,4.40
2019-05-23T18:50:10.809Z,3.95
2019-05-23T18:52:38.236Z,4.08
2019-05-23T18:55:05.965Z,3.50
2019-05-23T18:57:33.664Z,4.00
2019-05-23T19:00:01.247Z,3.80
2019-05-23T19:02:28.623Z,3.92
2019-05-23T19:04:55.961Z,3.80
2019-05-23T19:07:23.595Z,3.90
2019-05-23T19:09:51.706Z,4.47
2019-05-23T19:12:19.401Z,3.90
2019-05-23T19:14:46.700Z,3.77
2019-05-23T19:17:14.406Z,4.30
2019-05-23T19:19:42.064Z,4.45
2019-05-23T19:22:09.785Z,3.90
2019-05-23T19:24:37.161Z,4.25
2019-05-23T19:27:05.124Z,3.60
2019-05-23T19:29:33.336Z,4.35
2019-05-23T19:32:00.681Z,4.47
2019-05-23T19:34:28.036Z,4.35
2019-05-23T19:36:55.367Z,4.50
2019-05-23T19:39:24.242Z,4.00
2019-05-23T19:41:51.779Z,4.53
2019-05-23T19:44:19.072Z,4.45
2019-05-23T19:46:46.640Z,4.10
2019-05-23T19:49:14.137Z,5.00
2019-05-23T19:51:41.788Z,4.22
2019-05-23T19:54:09.419Z,4.22
2019-05-23T19:56:37.325Z,4.83
2019-05-23T19:59:04.650Z,4.33
2019-05-23T20:01:39.701Z,4.72
2019-05-23T20:04:07.098Z,4.80
2019-05-23T20:06:35.497Z,4.70
2019-05-23T20:09:09.436Z,5.10
2019-05-23T20:11:35.475Z,4.60
2019-05-23T20:14:02.761Z,5.12
2019-05-23T20:16:30.092Z,4.37
2019-05-23T20:18:57.425Z,4.28
2019-05-23T20:21:24.645Z,4.42
2019-05-23T20:23:51.939Z,4.65
2019-05-23T20:26:19.281Z,4.97
2019-05-23T20:28:46.524Z,4.65
2019-05-23T20:31:13.969Z,4.85
2019-05-23T20:33:41.351Z,5.20
2019-05-23T20:36:12.434Z,4.30
2019-05-23T20:38:39.457Z,5.00
2019-05-23T20:41:07.053Z,4.65
2019-05-23T20:43:34.425Z,4.65
2019-05-23T20:46:01.779Z,4.50
2019-05-23T20:48:29.082Z,4.87
2019-05-23T20:50:56.580Z,4.90
2019-05-23T20:53:24.065Z,5.17
2019-05-23T20:55:51.340Z,5.00
2019-05-23T20:58:18.714Z,5.17
2019-05-23T21:01:04.445Z,5.45
2019-05-23T21:03:34.680Z,5.05
2019-05-23T21:06:01.572Z,5.53
2019-05-23T21:08:29.177Z,5.20
2019-05-23T21:10:56.412Z,4.33
2019-05-23T21:13:23.939Z,4.40
2019-05-23T21:15:51.743Z,5.25
2019-05-23T21:18:19.585Z,5.25
2019-05-23T21:20:46.962Z,5.75
2019-05-23T21:23:14.191Z,5.28
2019-05-23T21:25:47.787Z,5.20
2019-05-23T21:28:15.056Z,5.08
2019-05-23T21:31:02.009Z,5.50
2019-05-23T21:33:29.474Z,4.95
2019-05-23T21:35:56.864Z,5.33
2019-05-23T21:38:24.965Z,5.35
2019-05-23T21:40:52.680Z,5.42
2019-05-23T21:43:19.987Z,5.53
2019-05-23T21:45:47.740Z,4.95
2019-05-23T21:48:15.027Z,5.45
2019-05-23T21:50:42.416Z,5.25
2019-05-23T21:53:10.376Z,5.47
2019-05-23T21:55:38.945Z,5.03
2019-05-23T21:58:06.969Z,5.20
2019-05-23T22:01:28.776Z,5.53
2019-05-23T22:04:19.453Z,5.60
2019-05-23T22:06:55.244Z,5.03
2019-05-23T22:09:20.529Z,5.03
2019-05-23T22:11:48.710Z,5.95
2019-05-23T22:14:16.053Z,5.65
2019-05-23T22:16:43.297Z,5.92
2019-05-23T22:19:13.096Z,5.83
2019-05-23T22:21:40.428Z,5.80
2019-05-23T22:24:08.483Z,5.70
2019-05-23T22:26:35.819Z,5.37
2019-05-23T22:29:03.128Z,5.05
2019-05-23T22:31:30.572Z,5.03
2019-05-23T22:34:04.256Z,5.33
2019-05-23T22:36:32.300Z,5.35
2019-05-23T22:39:00.479Z,5.80
2019-05-23T22:41:28.552Z,6.35
2019-05-23T22:43:56.929Z,6.35
2019-05-23T22:46:26.038Z,6.22
2019-05-23T22:48:53.411Z,6.03
2019-05-23T22:51:21.563Z,5.60
2019-05-23T22:53:48.907Z,6.15
2019-05-23T22:56:16.207Z,5.58
2019-05-23T22:58:43.690Z,5.90
2019-05-23T23:01:11.363Z,5.90
2019-05-23T23:03:38.951Z,5.53
2019-05-23T23:06:06.293Z,5.90
2019-05-23T23:08:33.573Z,6.03
2019-05-23T23:11:00.822Z,5.15
2019-05-23T23:13:38.091Z,5.60
2019-05-23T23:15:57.246Z,5.58
2019-05-23T23:18:25.262Z,5.37
2019-05-23T23:20:52.747Z,5.25
2019-05-23T23:23:19.967Z,5.35
2019-05-23T23:25:47.244Z,5.72
2019-05-23T23:28:14.547Z,5.80
2019-05-23T23:30:43.606Z,5.92
2019-05-23T23:33:11.056Z,6.12
2019-05-23T23:35:38.280Z,6.55
2019-05-23T23:38:05.534Z,6.70
2019-05-23T23:40:32.861Z,6.22
2019-05-23T23:43:00.085Z,6.72
2019-05-23T23:45:45.108Z,5.92
2019-05-23T23:48:30.741Z,5.90
2019-05-23T23:51:16.023Z,6.45
2019-05-23T23:54:01.421Z,5.65
2019-05-23T23:56:46.843Z,5.92
2019-05-23T23:59:13.599Z,5.55
